createdAt,value
2019-03-03T00:01:28.689Z,15.87
2019-03-03T00:03:54.847Z,16.56
2019-03-03T00:06:21.007Z,15.78
2019-03-03T00:08:47.196Z,16.13
2019-03-03T00:11:13.358Z,16.79
2019-03-03T00:13:39.516Z,16.05
2019-03-03T00:16:05.712Z,16.54
2019-03-03T00:18:31.977Z,16.15
2019-03-03T00:20:58.147Z,15.56
2019-03-03T00:23:24.334Z,16.85
2019-03-03T00:25:50.488Z,16.62
2019-03-03T00:28:16.648Z,16.98
2019-03-03T00:30:42.848Z,16.55
2019-03-03T00:33:09.003Z,15.81
2019-03-03T00:35:35.167Z,16.70
2019-03-03T00:38:18.121Z,16.83
2019-03-03T00:40:52.189Z,16.69
2019-03-03T00:43:38.309Z,16.11
2019-03-03T00:46:21.163Z,16.12
2019-03-03T00:48:49.247Z,15.88
2019-03-03T00:51:23.099Z,16.04
2019-03-03T00:53:53.747Z,16.21
2019-03-03T00:56:33.883Z,16.34
2019-03-03T00:59:10.628Z,16.71
2019-03-03T01:01:38.805Z,16.85
2019-03-03T01:04:23.176Z,17.21
2019-03-03T01:07:02.916Z,17.56
2019-03-03T01:09:39.610Z,17.85
2019-03-03T01:12:08.072Z,17.36
2019-03-03T01:14:52.668Z,17.80
2019-03-03T01:17:35.519Z,18.10
2019-03-03T01:20:03.602Z,17.91
2019-03-03T01:22:34.211Z,16.93
2019-03-03T01:25:00.373Z,16.51
2019-03-03T01:27:26.658Z,15.41
2019-03-03T01:29:52.916Z,15.38
2019-03-03T01:32:19.073Z,15.50
2019-03-03T01:34:45.361Z,15.50
2019-03-03T01:37:11.626Z,15.20
2019-03-03T01:39:37.779Z,15.02
2019-03-03T01:42:04.080Z,14.95
2019-03-03T01:44:30.242Z,15.44
2019-03-03T01:46:56.501Z,14.25
2019-03-03T01:49:22.702Z,14.31
2019-03-03T01:51:48.865Z,14.58
2019-03-03T01:54:15.125Z,14.41
2019-03-03T01:56:41.416Z,14.61
2019-03-03T01:59:07.694Z,14.34
2019-03-03T02:01:33.858Z,14.42
2019-03-03T02:04:00.057Z,14.64
2019-03-03T02:06:26.219Z,14.48
2019-03-03T02:08:52.373Z,14.62
2019-03-03T02:11:18.563Z,14.86
2019-03-03T02:13:44.726Z,15.43
2019-03-03T02:16:11.177Z,14.58
2019-03-03T02:18:37.368Z,14.92
2019-03-03T02:21:03.531Z,15.08
2019-03-03T02:23:29.679Z,14.48
2019-03-03T02:25:55.863Z,14.42
2019-03-03T02:28:22.023Z,13.47
2019-03-03T02:30:48.273Z,14.47
2019-03-03T02:33:14.586Z,14.12
2019-03-03T02:35:40.750Z,14.73
2019-03-03T02:38:06.902Z,14.07
2019-03-03T02:40:33.198Z,14.14
2019-03-03T02:42:59.448Z,14.83
2019-03-03T02:45:25.607Z,14.15
2019-03-03T02:47:51.805Z,14.79
2019-03-03T02:50:17.968Z,15.94
2019-03-03T02:52:44.317Z,15.21
2019-03-03T02:55:16.241Z,14.67
2019-03-03T02:57:42.787Z,15.38
2019-03-03T03:00:23.422Z,14.92
2019-03-03T03:02:54.262Z,15.46
2019-03-03T03:05:42.017Z,15.18
2019-03-03T03:08:10.293Z,14.89
2019-03-03T03:10:38.354Z,15.50
2019-03-03T03:13:09.449Z,14.91
2019-03-03T03:15:40.384Z,14.44
2019-03-03T03:20:59.746Z,14.95
2019-03-03T03:23:27.854Z,14.70
2019-03-03T03:25:55.933Z,13.94
2019-03-03T03:28:26.533Z,14.51
2019-03-03T03:30:57.154Z,14.44
2019-03-03T03:33:28.214Z,15.23
2019-03-03T03:35:59.095Z,14.93
2019-03-03T03:38:27.155Z,14.63
2019-03-03T03:41:10.085Z,14.26
2019-03-03T03:43:38.133Z,13.79
2019-03-03T03:46:18.274Z,14.82
2019-03-03T03:49:03.080Z,15.29
2019-03-03T03:51:43.009Z,15.17
2019-03-03T03:54:11.181Z,15.70
2019-03-03T03:59:22.810Z,15.39
2019-03-03T04:01:50.889Z,15.67
2019-03-03T04:04:31.277Z,15.57
2019-03-03T04:07:02.305Z,14.80
2019-03-03T04:09:30.362Z,15.13
2019-03-03T04:11:58.429Z,15.16
2019-03-03T04:14:26.558Z,15.14
2019-03-03T04:17:03.357Z,14.97
2019-03-03T04:19:40.143Z,14.21
2019-03-03T04:22:14.110Z,13.84
2019-03-03T04:24:45.145Z,14.61
2019-03-03T04:27:29.555Z,14.43
2019-03-03T04:30:09.345Z,14.24
2019-03-03T04:32:49.395Z,14.67
2019-03-03T04:35:23.014Z,14.20
2019-03-03T04:38:00.169Z,14.42
2019-03-03T04:40:28.253Z,14.43
2019-03-03T04:42:56.313Z,14.73
2019-03-03T04:45:27.445Z,14.55
2019-03-03T04:48:07.438Z,14.65
2019-03-03T04:50:41.594Z,14.57
2019-03-03T04:53:27.856Z,14.71
2019-03-03T04:55:55.915Z,14.74
2019-03-03T04:58:29.608Z,14.82
2019-03-03T05:01:00.209Z,14.74
2019-03-03T05:03:37.068Z,14.76
2019-03-03T05:06:07.748Z,14.67
2019-03-03T05:08:35.820Z,14.68
2019-03-03T05:11:06.988Z,14.78
2019-03-03T05:13:37.814Z,14.71
2019-03-03T05:16:22.461Z,14.83
2019-03-03T05:18:50.516Z,14.88
2019-03-03T05:21:16.675Z,14.73
2019-03-03T05:23:42.964Z,14.37
2019-03-03T05:26:09.110Z,14.97
2019-03-03T05:28:35.278Z,15.26
2019-03-03T05:31:01.565Z,15.44
2019-03-03T05:33:27.722Z,15.86
2019-03-03T05:35:53.872Z,16.79
2019-03-03T05:38:20.068Z,17.87
2019-03-03T05:40:46.234Z,18.49
2019-03-03T05:43:12.503Z,18.82
2019-03-03T05:45:38.797Z,19.62
2019-03-03T05:48:04.998Z,19.90
2019-03-03T05:50:31.248Z,20.28
2019-03-03T05:52:57.567Z,20.53
2019-03-03T05:55:23.718Z,21.13
2019-03-03T05:57:50.102Z,21.13
2019-03-03T06:00:16.401Z,21.14
2019-03-03T06:02:42.565Z,21.10
2019-03-03T06:05:08.737Z,21.19
2019-03-03T06:07:35.031Z,21.72
2019-03-03T06:10:01.197Z,21.38
2019-03-03T06:12:27.389Z,20.22
2019-03-03T06:14:53.696Z,20.74
2019-03-03T06:17:19.859Z,20.67
2019-03-03T06:19:46.122Z,20.56
2019-03-03T06:22:12.417Z,19.75
2019-03-03T06:24:38.571Z,19.56
2019-03-03T06:27:04.735Z,18.40
2019-03-03T06:29:31.032Z,18.06
2019-03-03T06:31:57.201Z,16.17
2019-03-03T06:34:23.359Z,16.40
2019-03-03T06:36:49.565Z,16.59
2019-03-03T06:39:15.724Z,16.69
2019-03-03T06:41:41.880Z,17.17
2019-03-03T06:44:08.194Z,15.86
2019-03-03T06:46:34.354Z,15.04
2019-03-03T06:49:00.522Z,14.72
2019-03-03T06:51:26.712Z,14.47
2019-03-03T06:53:52.958Z,15.06
2019-03-03T06:56:19.224Z,16.72
2019-03-03T06:58:45.435Z,16.26
2019-03-03T07:01:11.587Z,15.46
2019-03-03T07:03:37.743Z,16.12
2019-03-03T07:06:04.030Z,16.51
2019-03-03T07:08:30.240Z,16.26
2019-03-03T07:10:56.511Z,17.11
2019-03-03T07:13:22.746Z,16.57
2019-03-03T07:15:48.933Z,17.04
2019-03-03T07:18:15.089Z,16.90
2019-03-03T07:20:41.389Z,18.29
2019-03-03T07:23:07.549Z,18.17
2019-03-03T07:25:33.816Z,17.77
2019-03-03T07:28:00.130Z,16.70
2019-03-03T07:30:26.392Z,17.55
2019-03-03T07:33:03.504Z,17.19
2019-03-03T07:35:29.709Z,16.31
2019-03-03T07:37:55.872Z,16.67
2019-03-03T07:40:22.066Z,15.55
2019-03-03T07:42:48.222Z,16.15
2019-03-03T07:45:14.485Z,15.51
2019-03-03T07:47:40.783Z,15.55
2019-03-03T07:50:07.247Z,17.47
2019-03-03T07:52:33.408Z,17.28
2019-03-03T07:54:59.607Z,15.43
2019-03-03T07:57:25.765Z,15.14
2019-03-03T07:59:52.230Z,14.46
2019-03-03T08:02:18.539Z,15.16
2019-03-03T08:04:44.696Z,15.41
2019-03-03T08:07:10.962Z,14.84
2019-03-03T08:09:41.088Z,17.00
2019-03-03T08:12:09.164Z,17.37
2019-03-03T08:14:35.386Z,16.68
2019-03-03T08:17:01.858Z,15.13
2019-03-03T08:19:28.031Z,15.77
2019-03-03T08:21:54.241Z,16.67
2019-03-03T08:24:20.501Z,16.00
2019-03-03T08:26:46.785Z,15.48
2019-03-03T08:29:12.926Z,15.09
2019-03-03T08:31:41.191Z,14.62
2019-03-03T08:34:07.360Z,16.34
2019-03-03T08:36:33.521Z,16.34
2019-03-03T08:38:59.858Z,15.14
2019-03-03T08:41:26.129Z,15.90
2019-03-03T08:43:56.985Z,14.34
2019-03-03T08:46:25.095Z,14.67
2019-03-03T08:48:53.561Z,14.27
2019-03-03T08:51:21.640Z,16.86
2019-03-03T08:54:01.524Z,14.52
2019-03-03T08:56:46.161Z,16.18
2019-03-03T08:59:14.277Z,17.35
2019-03-03T09:01:58.852Z,15.39
2019-03-03T09:04:32.522Z,16.02
2019-03-03T09:07:17.044Z,16.88
2019-03-03T09:09:47.676Z,16.35
2019-03-03T09:12:27.373Z,15.94
2019-03-03T09:15:10.622Z,16.34
2019-03-03T09:17:41.409Z,16.79
2019-03-03T09:20:10.478Z,16.25
2019-03-03T09:25:37.393Z,16.16
2019-03-03T09:28:11.221Z,16.76
2019-03-03T09:30:39.309Z,16.85
2019-03-03T09:33:07.409Z,16.92
2019-03-03T09:35:38.396Z,17.09
2019-03-03T09:38:12.340Z,15.52
2019-03-03T09:40:52.487Z,14.00
2019-03-03T09:43:20.550Z,15.42
2019-03-03T09:45:57.645Z,14.76
2019-03-03T09:48:25.712Z,15.05
2019-03-03T09:51:00.190Z,15.37
2019-03-03T09:56:27.725Z,15.98
2019-03-03T09:59:07.818Z,16.81
2019-03-03T10:01:38.705Z,17.59
2019-03-03T10:04:09.537Z,15.56
2019-03-03T10:06:43.806Z,15.68
2019-03-03T10:09:12.305Z,15.88
2019-03-03T10:11:40.394Z,17.19
2019-03-03T10:14:08.635Z,16.44
2019-03-03T10:16:36.699Z,16.39
2019-03-03T10:19:07.241Z,15.89
2019-03-03T10:21:37.385Z,16.50
2019-03-03T10:24:05.490Z,18.19
2019-03-03T10:26:35.079Z,15.80
2019-03-03T10:29:03.366Z,16.46
2019-03-03T10:31:31.426Z,17.81
2019-03-03T10:34:08.429Z,16.86
2019-03-03T10:36:45.167Z,18.24
2019-03-03T10:39:16.352Z,19.78
2019-03-03T10:41:44.412Z,18.19
2019-03-03T10:44:18.288Z,18.39
2019-03-03T10:46:48.892Z,20.46
2019-03-03T10:49:33.343Z,21.09
2019-03-03T10:52:06.965Z,19.84
2019-03-03T10:54:40.870Z,18.93
2019-03-03T10:57:25.706Z,19.66
2019-03-03T10:59:56.310Z,20.49
2019-03-03T11:02:40.639Z,20.63
2019-03-03T11:05:08.935Z,19.50
2019-03-03T11:07:53.593Z,19.08
2019-03-03T11:10:24.211Z,18.86
2019-03-03T11:12:58.325Z,18.75
2019-03-03T11:15:35.082Z,18.59
2019-03-03T11:18:08.751Z,17.37
2019-03-03T11:20:39.627Z,17.78
2019-03-03T11:23:07.684Z,17.57
2019-03-03T11:25:35.757Z,18.53
2019-03-03T11:28:23.384Z,18.86
2019-03-03T11:30:49.023Z,19.24
2019-03-03T11:33:17.120Z,18.11
2019-03-03T11:35:48.445Z,17.50
2019-03-03T11:38:19.570Z,18.20
2019-03-03T11:40:56.644Z,19.27
2019-03-03T11:43:27.302Z,17.95
2019-03-03T11:45:58.246Z,19.21
2019-03-03T11:48:38.180Z,19.11
2019-03-03T11:51:06.261Z,19.36
2019-03-03T11:53:37.356Z,20.19
2019-03-03T11:56:05.469Z,21.87
2019-03-03T11:58:48.757Z,21.25
2019-03-03T12:01:33.464Z,21.01
2019-03-03T12:04:04.559Z,20.63
2019-03-03T12:06:49.212Z,21.32
2019-03-03T12:09:19.925Z,21.98
2019-03-03T12:11:51.090Z,22.37
2019-03-03T12:14:19.159Z,21.28
2019-03-03T12:16:59.392Z,21.65
2019-03-03T12:19:33.288Z,21.36
2019-03-03T12:22:01.396Z,20.14
2019-03-03T12:24:31.996Z,21.65
2019-03-03T12:27:00.055Z,21.49
2019-03-03T12:29:36.906Z,22.58
2019-03-03T12:32:21.256Z,22.09
2019-03-03T12:34:54.988Z,20.64
2019-03-03T12:37:23.055Z,21.61
2019-03-03T12:39:51.124Z,22.26
2019-03-03T12:42:31.375Z,21.59
2019-03-03T12:45:01.968Z,20.03
2019-03-03T12:47:30.072Z,20.08
2019-03-03T12:50:06.989Z,21.58
2019-03-03T12:52:37.847Z,21.08
2019-03-03T12:55:16.565Z,21.86
2019-03-03T12:57:45.039Z,22.13
2019-03-03T13:00:22.213Z,24.68
2019-03-03T13:03:06.821Z,24.44
2019-03-03T13:05:49.783Z,22.64
2019-03-03T13:08:32.732Z,23.61
2019-03-03T13:11:03.755Z,22.02
2019-03-03T13:13:48.387Z,20.19
2019-03-03T13:16:22.063Z,19.71
2019-03-03T13:18:53.803Z,21.35
2019-03-03T13:21:21.897Z,22.99
2019-03-03T13:24:05.109Z,23.29
2019-03-03T13:26:45.177Z,23.27
2019-03-03T13:29:19.014Z,21.74
2019-03-03T13:31:55.909Z,22.86
2019-03-03T13:34:24.032Z,22.07
2019-03-03T13:36:52.121Z,21.95
2019-03-03T13:39:20.186Z,21.09
2019-03-03T13:41:54.091Z,21.04
2019-03-03T13:44:20.262Z,20.27
2019-03-03T13:46:48.002Z,20.19
2019-03-03T13:49:14.203Z,19.79
2019-03-03T13:51:40.383Z,19.90
2019-03-03T13:54:06.722Z,19.25
2019-03-03T13:56:33.373Z,19.47
2019-03-03T13:58:59.643Z,20.91
2019-03-03T14:01:25.914Z,20.36
2019-03-03T14:03:52.425Z,20.29
2019-03-03T14:06:20.429Z,20.78
2019-03-03T14:08:46.691Z,21.23
2019-03-03T14:11:12.892Z,20.43
2019-03-03T14:13:50.183Z,19.89
2019-03-03T14:16:16.379Z,20.31
2019-03-03T14:18:42.546Z,20.77
2019-03-03T14:21:08.968Z,21.04
2019-03-03T14:23:35.176Z,20.90
2019-03-03T14:26:01.460Z,21.14
2019-03-03T14:28:27.725Z,21.55
2019-03-03T14:30:54.025Z,21.92
2019-03-03T14:33:20.306Z,22.71
2019-03-03T14:35:46.426Z,22.50
2019-03-03T14:38:12.633Z,23.30
2019-03-03T14:40:38.796Z,21.70
2019-03-03T14:43:04.957Z,20.83
2019-03-03T14:45:31.156Z,21.19
2019-03-03T14:47:57.325Z,21.38
2019-03-03T14:50:23.543Z,21.86
2019-03-03T14:52:51.795Z,20.83
2019-03-03T14:55:19.075Z,21.43
2019-03-03T14:57:45.554Z,21.43
2019-03-03T15:00:26.161Z,21.42
2019-03-03T15:02:52.828Z,21.48
2019-03-03T15:05:20.278Z,21.34
2019-03-03T15:07:46.476Z,20.25
2019-03-03T15:10:12.745Z,21.07
2019-03-03T15:12:38.912Z,21.56
2019-03-03T15:15:20.197Z,21.75
2019-03-03T15:17:46.467Z,22.11
2019-03-03T15:20:13.646Z,21.55
2019-03-03T15:22:39.889Z,21.50
2019-03-03T15:25:10.676Z,21.78
2019-03-03T15:27:36.949Z,21.81
2019-03-03T15:30:06.856Z,22.07
2019-03-03T15:32:33.024Z,22.12
2019-03-03T15:34:59.192Z,22.19
2019-03-03T15:37:26.187Z,22.20
2019-03-03T15:39:52.359Z,22.24
2019-03-03T15:42:18.523Z,22.26
2019-03-03T15:44:44.821Z,22.05
2019-03-03T15:47:11.078Z,21.74
2019-03-03T15:49:37.247Z,21.61
2019-03-03T15:52:03.456Z,21.55
2019-03-03T15:54:29.730Z,21.50
2019-03-03T15:56:55.899Z,21.20
2019-03-03T15:59:22.209Z,21.05
2019-03-03T16:01:48.381Z,20.84
2019-03-03T16:04:14.553Z,20.68
2019-03-03T16:06:40.756Z,20.45
2019-03-03T16:09:07.725Z,20.15
2019-03-03T16:11:33.887Z,19.74
2019-03-03T16:14:00.084Z,19.50
2019-03-03T16:16:26.243Z,19.38
2019-03-03T16:18:52.510Z,19.06
2019-03-03T16:21:18.829Z,18.81
2019-03-03T16:23:45.912Z,19.00
2019-03-03T16:26:12.071Z,18.94
2019-03-03T16:28:38.265Z,18.74
2019-03-03T16:31:04.518Z,18.78
2019-03-03T16:33:30.796Z,18.66
2019-03-03T16:35:57.105Z,18.42
2019-03-03T16:38:23.276Z,18.13
2019-03-03T16:40:49.547Z,17.97
2019-03-03T16:43:15.842Z,17.60
2019-03-03T16:45:42.111Z,17.68
2019-03-03T16:48:08.306Z,17.62
2019-03-03T16:50:34.467Z,17.77
2019-03-03T16:53:00.747Z,17.86
2019-03-03T16:55:26.913Z,17.81
2019-03-03T16:57:53.206Z,17.75
2019-03-03T17:00:23.529Z,17.83
2019-03-03T17:02:49.696Z,17.60
2019-03-03T17:05:17.890Z,17.18
2019-03-03T17:07:44.052Z,17.11
2019-03-03T17:10:11.811Z,16.89
2019-03-03T17:12:38.505Z,16.26
2019-03-03T17:15:08.267Z,16.01
2019-03-03T17:17:34.431Z,16.25
2019-03-03T17:20:00.744Z,15.95
2019-03-03T17:22:26.901Z,16.33
2019-03-03T17:24:53.073Z,16.61
2019-03-03T17:27:19.267Z,16.54
2019-03-03T17:29:45.541Z,16.39
2019-03-03T17:32:11.702Z,15.69
2019-03-03T17:34:37.898Z,16.14
2019-03-03T17:37:04.056Z,16.73
2019-03-03T17:39:30.321Z,17.05
2019-03-03T17:41:56.620Z,16.94
2019-03-03T17:44:22.803Z,16.96
2019-03-03T17:46:48.961Z,16.86
2019-03-03T17:49:15.166Z,16.65
2019-03-03T17:51:41.320Z,16.68
2019-03-03T17:54:07.585Z,16.49
2019-03-03T17:56:33.957Z,16.32
2019-03-03T17:59:00.121Z,16.19
2019-03-03T18:01:26.380Z,16.42
2019-03-03T18:03:52.690Z,16.73
2019-03-03T18:06:19.443Z,16.66
2019-03-03T18:08:45.612Z,16.69
2019-03-03T18:11:11.805Z,16.84
2019-03-03T18:13:43.902Z,16.78
2019-03-03T18:16:10.066Z,16.75
2019-03-03T18:18:36.358Z,16.57
2019-03-03T18:21:02.816Z,16.54
2019-03-03T18:23:29.773Z,16.42
2019-03-03T18:25:56.227Z,16.47
2019-03-03T18:28:22.397Z,16.41
2019-03-03T18:30:48.558Z,16.31
2019-03-03T18:33:15.657Z,16.38
2019-03-03T18:35:41.930Z,16.52
2019-03-03T18:38:08.193Z,16.58
2019-03-03T18:40:34.395Z,16.52
2019-03-03T18:43:00.552Z,16.36
2019-03-03T18:45:26.709Z,16.08
2019-03-03T18:47:52.912Z,15.98
2019-03-03T18:50:23.565Z,16.12
2019-03-03T18:52:49.849Z,16.21
2019-03-03T18:55:16.032Z,16.14
2019-03-03T18:57:42.196Z,15.98
2019-03-03T19:00:14.639Z,15.84
2019-03-03T19:02:40.835Z,15.81
2019-03-03T19:05:07.498Z,15.24
2019-03-03T19:07:33.669Z,15.12
2019-03-03T19:09:59.857Z,15.23
2019-03-03T19:12:26.114Z,15.52
2019-03-03T19:14:52.280Z,15.52
2019-03-03T19:17:18.587Z,15.82
2019-03-03T19:19:44.886Z,15.90
2019-03-03T19:22:11.002Z,16.01
2019-03-03T19:24:37.205Z,15.93
2019-03-03T19:27:03.480Z,16.20
2019-03-03T19:29:29.635Z,16.35
2019-03-03T19:31:55.928Z,15.92
2019-03-03T19:34:22.095Z,15.91
2019-03-03T19:36:48.255Z,16.21
2019-03-03T19:39:16.189Z,16.17
2019-03-03T19:41:43.332Z,15.92
2019-03-03T19:44:11.252Z,16.09
2019-03-03T19:46:37.581Z,16.06
2019-03-03T19:49:03.745Z,16.19
2019-03-03T19:51:29.943Z,15.87
2019-03-03T19:53:56.137Z,15.32
2019-03-03T19:56:22.302Z,15.03
2019-03-03T19:58:48.886Z,15.15
2019-03-03T20:01:15.182Z,14.86
2019-03-03T20:03:41.445Z,15.10
2019-03-03T20:06:08.021Z,15.01
2019-03-03T20:08:35.215Z,15.21
2019-03-03T20:11:01.399Z,14.11
2019-03-03T20:13:27.761Z,14.04
2019-03-03T20:15:53.948Z,14.31
2019-03-03T20:18:20.162Z,15.29
2019-03-03T20:20:46.380Z,14.93
2019-03-03T20:23:12.571Z,14.29
2019-03-03T20:25:38.844Z,14.82
2019-03-03T20:28:05.054Z,15.05
2019-03-03T20:30:31.345Z,15.95
2019-03-03T20:32:57.605Z,15.37
2019-03-03T20:35:23.768Z,15.20
2019-03-03T20:37:50.367Z,15.69
2019-03-03T20:40:24.995Z,15.17
2019-03-03T20:42:52.527Z,15.28
2019-03-03T20:45:30.192Z,14.20
2019-03-03T20:47:56.590Z,14.76
2019-03-03T20:50:22.846Z,14.75
2019-03-03T20:52:49.895Z,14.88
2019-03-03T20:55:17.993Z,14.34
2019-03-03T20:57:44.153Z,14.93
2019-03-03T21:00:13.520Z,13.87
2019-03-03T21:02:39.708Z,14.10
2019-03-03T21:05:07.166Z,14.21
2019-03-03T21:07:33.738Z,14.22
2019-03-03T21:10:00.027Z,13.22
2019-03-03T21:12:26.194Z,13.35
2019-03-03T21:14:52.360Z,13.35
2019-03-03T21:17:18.549Z,13.93
2019-03-03T21:19:44.705Z,14.22
2019-03-03T21:22:10.859Z,13.36
2019-03-03T21:24:37.065Z,14.03
2019-03-03T21:27:03.216Z,13.77
2019-03-03T21:29:29.452Z,14.20
2019-03-03T21:31:55.640Z,13.83
2019-03-03T21:34:21.804Z,13.66
2019-03-03T21:36:47.968Z,13.90
2019-03-03T21:39:14.154Z,14.08
2019-03-03T21:41:40.310Z,13.45
2019-03-03T21:44:06.464Z,13.81
2019-03-03T21:46:32.753Z,14.04
2019-03-03T21:48:58.916Z,13.83
2019-03-03T21:51:25.078Z,13.40
2019-03-03T21:53:51.267Z,13.78
2019-03-03T21:56:17.633Z,13.40
2019-03-03T21:58:43.790Z,14.27
2019-03-03T22:01:09.984Z,14.00
2019-03-03T22:03:36.139Z,14.26
2019-03-03T22:06:02.397Z,14.21
2019-03-03T22:08:28.693Z,14.15
2019-03-03T22:10:54.853Z,14.63
2019-03-03T22:13:21.014Z,14.62
2019-03-03T22:15:47.216Z,14.63
2019-03-03T22:18:13.353Z,14.20
2019-03-03T22:20:39.511Z,14.69
2019-03-03T22:23:05.700Z,14.24
2019-03-03T22:25:31.859Z,14.18
2019-03-03T22:27:58.022Z,14.41
2019-03-03T22:30:24.338Z,14.58
2019-03-03T22:32:50.504Z,14.17
2019-03-03T22:35:17.255Z,14.60
2019-03-03T22:37:43.450Z,14.23
2019-03-03T22:40:17.170Z,14.14
2019-03-03T22:42:43.436Z,14.02
2019-03-03T22:45:16.589Z,14.84
2019-03-03T22:47:42.852Z,15.56
2019-03-03T22:50:16.150Z,15.17
2019-03-03T22:52:42.544Z,16.08
2019-03-03T22:55:11.808Z,16.21
2019-03-03T22:57:38.072Z,15.68
2019-03-03T23:00:28.064Z,16.11
2019-03-03T23:02:54.329Z,15.97
2019-03-03T23:05:30.364Z,16.04
2019-03-03T23:08:00.122Z,15.76
2019-03-03T23:10:34.798Z,15.92
2019-03-03T23:13:13.232Z,15.98
2019-03-03T23:15:52.311Z,15.80
2019-03-03T23:18:37.227Z,15.85
2019-03-03T23:21:13.039Z,15.64
2019-03-03T23:23:45.972Z,15.63
2019-03-03T23:26:16.570Z,15.69
2019-03-03T23:28:40.333Z,15.65
2019-03-03T23:31:06.497Z,15.52
2019-03-03T23:33:32.653Z,15.50
2019-03-03T23:35:58.841Z,15.27
2019-03-03T23:38:25.096Z,15.31
2019-03-03T23:40:51.363Z,15.05
2019-03-03T23:43:17.665Z,14.58
2019-03-03T23:45:43.831Z,14.35
2019-03-03T23:48:09.985Z,14.85
2019-03-03T23:50:36.279Z,14.24
2019-03-03T23:53:02.444Z,13.97
2019-03-03T23:55:28.601Z,14.12
2019-03-03T23:57:54.784Z,13.89
